createdAt,value
2023-08-31T00:01:39.640Z,15.50
2023-08-31T00:04:16.585Z,15.50
2023-08-31T00:06:50.984Z,15.50
2023-08-31T00:09:25.841Z,15.50
2023-08-31T00:11:59.854Z,15.40
2023-08-31T00:14:35.126Z,15.40
2023-08-31T00:17:29.411Z,15.40
2023-08-31T00:20:08.884Z,15.40
2023-08-31T00:22:42.950Z,15.40
2023-08-31T00:25:17.010Z,15.34
2023-08-31T00:27:53.687Z,15.30
2023-08-31T00:30:30.917Z,15.30
2023-08-31T00:33:06.376Z,15.30
2023-08-31T00:36:05.075Z,15.24
2023-08-31T00:38:39.558Z,15.20
2023-08-31T00:41:19.905Z,15.20
2023-08-31T00:43:54.062Z,15.18
2023-08-31T00:46:49.551Z,15.16
2023-08-31T00:49:25.364Z,15.12
2023-08-31T00:52:01.719Z,15.10
2023-08-31T00:54:38.843Z,15.10
2023-08-31T00:57:12.449Z,15.10
2023-08-31T00:59:45.948Z,15.02
2023-08-31T01:02:36.976Z,15.00
2023-08-31T01:05:27.834Z,14.90
2023-08-31T01:08:19.712Z,14.90
2023-08-31T01:11:18.138Z,14.80
2023-08-31T01:14:10.496Z,14.80
2023-08-31T01:16:51.305Z,14.80
2023-08-31T01:19:51.758Z,14.70
2023-08-31T01:22:42.815Z,14.70
2023-08-31T01:25:17.466Z,14.60
2023-08-31T01:27:51.215Z,14.52
2023-08-31T01:30:24.841Z,14.40
2023-08-31T01:32:58.720Z,14.38
2023-08-31T01:35:42.556Z,14.30
2023-08-31T01:38:27.500Z,14.20
2023-08-31T01:41:13.193Z,14.20
2023-08-31T01:43:51.664Z,14.20
2023-08-31T01:46:26.734Z,14.20
2023-08-31T01:49:00.278Z,14.20
2023-08-31T01:51:33.786Z,14.20
2023-08-31T01:54:08.175Z,14.20
2023-08-31T01:56:41.820Z,14.20
2023-08-31T01:59:15.740Z,14.20
2023-08-31T02:01:49.342Z,14.20
2023-08-31T02:04:22.905Z,14.20
2023-08-31T02:06:56.647Z,14.22
2023-08-31T02:09:30.305Z,14.28
2023-08-31T02:12:03.964Z,14.22
2023-08-31T02:14:37.613Z,14.24
2023-08-31T02:17:11.516Z,14.26
2023-08-31T02:19:45.113Z,14.30
2023-08-31T02:22:18.763Z,14.30
2023-08-31T02:28:03.954Z,14.40
2023-08-31T02:30:37.480Z,14.40
2023-08-31T02:33:13.464Z,14.40
2023-08-31T02:35:47.665Z,14.40
2023-08-31T02:38:21.311Z,14.40
2023-08-31T02:40:54.846Z,14.40
2023-08-31T02:43:29.868Z,14.32
2023-08-31T02:46:07.642Z,14.30
2023-08-31T02:48:41.835Z,14.30
2023-08-31T02:51:15.562Z,14.30
2023-08-31T02:53:49.925Z,14.20
2023-08-31T02:56:23.522Z,14.20
2023-08-31T02:58:57.109Z,14.20
2023-08-31T03:01:30.791Z,14.12
2023-08-31T03:04:04.460Z,14.10
2023-08-31T03:06:38.156Z,14.10
2023-08-31T03:09:12.045Z,14.00
2023-08-31T03:12:28.220Z,14.00
2023-08-31T03:15:37.315Z,14.00
2023-08-31T03:18:37.925Z,14.00
2023-08-31T03:21:50.837Z,14.00
2023-08-31T03:24:50.506Z,14.02
2023-08-31T03:27:24.930Z,14.08
2023-08-31T03:29:58.608Z,14.00
2023-08-31T03:32:32.261Z,14.00
2023-08-31T03:35:09.593Z,13.90
2023-08-31T03:37:43.771Z,13.90
2023-08-31T03:40:17.414Z,13.80
2023-08-31T03:42:51.726Z,13.80
2023-08-31T03:45:25.774Z,13.80
2023-08-31T03:47:59.379Z,13.78
2023-08-31T03:50:33.217Z,13.76
2023-08-31T03:53:07.021Z,13.72
2023-08-31T03:55:41.173Z,13.70
2023-08-31T03:58:14.993Z,13.70
2023-08-31T04:00:53.341Z,13.70
2023-08-31T04:03:27.396Z,13.70
2023-08-31T04:06:12.997Z,13.70
2023-08-31T04:08:48.158Z,13.70
2023-08-31T04:11:22.046Z,13.76
2023-08-31T04:13:55.695Z,13.80
2023-08-31T04:16:29.759Z,13.80
2023-08-31T04:19:03.727Z,13.80
2023-08-31T04:21:38.340Z,13.80
2023-08-31T04:24:12.640Z,13.80
2023-08-31T04:26:49.343Z,13.80
2023-08-31T04:29:23.216Z,13.80
2023-08-31T04:31:56.802Z,13.80
2023-08-31T04:34:30.397Z,13.80
2023-08-31T04:37:03.984Z,13.80
2023-08-31T04:39:37.704Z,13.86
2023-08-31T04:42:11.428Z,13.90
2023-08-31T04:44:45.015Z,13.92
2023-08-31T04:47:18.558Z,14.00
2023-08-31T04:49:52.283Z,14.00
2023-08-31T04:52:25.920Z,14.04
2023-08-31T04:54:59.535Z,14.10
2023-08-31T04:57:33.059Z,14.10
2023-08-31T05:00:10.332Z,14.10
2023-08-31T05:02:44.631Z,14.20
2023-08-31T05:05:21.933Z,14.20
2023-08-31T05:07:56.043Z,14.30
2023-08-31T05:10:29.714Z,14.40
2023-08-31T05:13:04.502Z,14.40
2023-08-31T05:15:39.648Z,14.50
2023-08-31T05:18:13.249Z,14.60
2023-08-31T05:20:49.938Z,14.70
2023-08-31T05:23:23.443Z,14.82
2023-08-31T05:25:57.903Z,14.98
2023-08-31T05:28:33.423Z,15.10
2023-08-31T05:31:07.626Z,15.20
2023-08-31T05:33:41.151Z,15.34
2023-08-31T05:36:14.683Z,15.50
2023-08-31T05:38:48.346Z,15.60
2023-08-31T05:41:22.266Z,15.60
2023-08-31T05:43:55.766Z,15.60
2023-08-31T05:46:32.343Z,15.70
2023-08-31T05:49:10.645Z,15.80
2023-08-31T05:51:46.861Z,15.80
2023-08-31T05:54:20.513Z,15.90
2023-08-31T05:56:54.607Z,15.90
2023-08-31T05:59:30.223Z,15.90
2023-08-31T06:02:05.879Z,15.90
2023-08-31T06:04:39.752Z,15.90
2023-08-31T06:07:13.906Z,15.90
2023-08-31T06:09:47.872Z,15.80
2023-08-31T06:12:23.820Z,15.80
2023-08-31T06:14:57.394Z,15.78
2023-08-31T06:17:31.372Z,15.80
2023-08-31T06:20:06.657Z,15.80
2023-08-31T06:22:43.153Z,15.90
2023-08-31T06:25:19.710Z,15.94
2023-08-31T06:27:53.901Z,16.06
2023-08-31T06:30:36.309Z,16.20
2023-08-31T06:33:11.085Z,16.46
2023-08-31T06:36:06.622Z,16.60
2023-08-31T06:38:55.548Z,16.80
2023-08-31T06:41:29.728Z,16.98
2023-08-31T06:44:03.684Z,17.10
2023-08-31T06:46:39.350Z,17.20
2023-08-31T06:49:40.562Z,17.30
2023-08-31T06:52:29.448Z,17.40
2023-08-31T06:55:06.457Z,17.60
2023-08-31T06:57:40.355Z,17.70
2023-08-31T07:00:21.153Z,17.80
2023-08-31T07:03:09.644Z,17.92
2023-08-31T07:06:11.277Z,18.10
2023-08-31T07:08:46.634Z,18.30
2023-08-31T07:11:25.294Z,18.40
2023-08-31T07:14:01.027Z,18.60
2023-08-31T07:16:34.605Z,18.68
2023-08-31T07:19:10.947Z,18.78
2023-08-31T07:21:46.109Z,18.90
2023-08-31T07:24:20.632Z,19.06
2023-08-31T07:26:54.438Z,19.40
2023-08-31T07:29:28.022Z,19.76
2023-08-31T07:32:05.186Z,19.90
2023-08-31T07:34:38.822Z,20.00
2023-08-31T07:37:12.530Z,20.10
2023-08-31T07:39:47.338Z,20.00
2023-08-31T07:42:21.275Z,20.00
2023-08-31T07:44:55.365Z,20.00
2023-08-31T07:47:29.449Z,19.90
2023-08-31T07:53:31.159Z,20.20
2023-08-31T07:56:28.273Z,20.40
2023-08-31T07:59:33.006Z,20.30
2023-08-31T08:02:10.114Z,20.20
2023-08-31T08:05:02.489Z,20.30
2023-08-31T08:07:48.619Z,20.60
2023-08-31T08:10:34.398Z,20.90
2023-08-31T08:13:40.661Z,21.00
2023-08-31T08:17:14.283Z,21.20
2023-08-31T08:20:44.960Z,21.02
2023-08-31T08:23:37.294Z,20.70
2023-08-31T08:26:15.397Z,20.80
2023-08-31T08:28:49.215Z,20.80
2023-08-31T08:31:23.535Z,20.70
2023-08-31T08:33:59.427Z,20.58
2023-08-31T08:36:41.026Z,20.44
2023-08-31T08:39:25.144Z,20.20
2023-08-31T08:42:09.612Z,19.90
2023-08-31T08:44:46.918Z,19.80
2023-08-31T08:47:25.351Z,19.60
2023-08-31T08:50:01.001Z,19.40
2023-08-31T08:52:37.750Z,19.18
2023-08-31T08:55:14.373Z,18.90
2023-08-31T08:57:51.682Z,18.52
2023-08-31T09:00:27.631Z,18.20
2023-08-31T09:03:08.707Z,17.90
2023-08-31T09:05:46.772Z,17.48
2023-08-31T09:08:27.658Z,17.20
2023-08-31T09:11:03.353Z,17.20
2023-08-31T09:13:38.562Z,17.20
2023-08-31T09:16:49.890Z,17.10
2023-08-31T09:19:29.456Z,17.08
2023-08-31T09:22:03.679Z,17.10
2023-08-31T09:24:54.518Z,17.20
2023-08-31T09:28:03.303Z,17.10
2023-08-31T09:30:42.544Z,17.00
2023-08-31T09:33:22.384Z,17.00
2023-08-31T09:35:59.395Z,16.94
2023-08-31T09:38:33.044Z,16.90
2023-08-31T09:41:10.920Z,16.90
2023-08-31T09:43:44.976Z,16.80
2023-08-31T09:46:20.293Z,16.70
2023-08-31T09:48:55.878Z,16.60
2023-08-31T09:51:31.611Z,16.50
2023-08-31T09:54:09.924Z,16.50
2023-08-31T09:56:48.684Z,16.40
2023-08-31T09:59:23.744Z,16.02
2023-08-31T10:01:58.496Z,15.60
2023-08-31T10:04:44.127Z,15.24
2023-08-31T10:07:24.141Z,15.10
2023-08-31T10:10:02.261Z,15.02
2023-08-31T10:12:40.177Z,15.10
2023-08-31T10:15:18.266Z,15.20
2023-08-31T10:17:52.539Z,15.40
2023-08-31T10:20:29.845Z,15.60
2023-08-31T10:23:08.906Z,15.70
2023-08-31T10:26:09.027Z,15.90
2023-08-31T10:28:47.495Z,16.10
2023-08-31T10:31:25.344Z,16.14
2023-08-31T10:34:05.462Z,16.16
2023-08-31T10:36:55.505Z,16.10
2023-08-31T11:07:38.334Z,19.74
2023-08-31T11:10:18.769Z,19.86
2023-08-31T11:13:00.719Z,20.20
2023-08-31T11:15:37.337Z,20.54
2023-08-31T11:18:26.164Z,20.68
2023-08-31T11:21:23.062Z,20.80
2023-08-31T11:24:11.684Z,20.50
2023-08-31T11:27:08.599Z,20.40
2023-08-31T11:30:01.830Z,20.62
2023-08-31T11:32:56.294Z,20.90
2023-08-31T11:39:18.969Z,21.42
2023-08-31T11:42:57.975Z,21.60
2023-08-31T11:45:37.735Z,23.26
2023-08-31T11:48:27.316Z,23.86
2023-08-31T11:51:04.332Z,24.50
2023-08-31T11:53:53.089Z,25.04
2023-08-31T11:56:45.538Z,25.42
2023-08-31T11:59:33.711Z,25.92
2023-08-31T12:02:39.138Z,26.14
2023-08-31T12:05:18.124Z,26.02
2023-08-31T12:07:59.397Z,26.66
2023-08-31T12:10:46.964Z,27.06
2023-08-31T12:13:24.198Z,26.80
2023-08-31T12:16:03.058Z,26.80
2023-08-31T12:18:42.105Z,27.22
2023-08-31T12:21:15.804Z,26.80
2023-08-31T12:23:52.093Z,27.10
2023-08-31T12:26:26.236Z,26.94
2023-08-31T12:29:02.126Z,26.20
2023-08-31T12:31:36.935Z,26.40
2023-08-31T12:34:11.186Z,25.28
2023-08-31T12:36:45.237Z,25.30
2023-08-31T12:39:21.281Z,25.42
2023-08-31T12:42:00.604Z,24.74
2023-08-31T12:44:51.405Z,25.64
2023-08-31T12:47:25.855Z,26.18
2023-08-31T12:50:00.155Z,26.72
2023-08-31T12:52:34.143Z,27.16
2023-08-31T12:55:08.849Z,27.78
2023-08-31T12:57:46.316Z,28.26
2023-08-31T13:00:29.042Z,28.72
2023-08-31T13:03:16.771Z,28.92
2023-08-31T13:05:52.164Z,29.20
2023-08-31T13:08:26.114Z,28.40
2023-08-31T13:11:00.250Z,27.90
2023-08-31T13:13:33.730Z,28.22
2023-08-31T13:16:07.642Z,28.64
2023-08-31T13:18:41.184Z,27.66
2023-08-31T13:21:14.787Z,27.64
2023-08-31T13:23:49.686Z,28.74
2023-08-31T13:26:25.622Z,28.04
2023-08-31T13:28:59.372Z,27.36
2023-08-31T13:31:33.036Z,26.42
2023-08-31T13:34:08.122Z,25.62
2023-08-31T13:36:42.559Z,24.76
2023-08-31T13:39:16.258Z,24.98
2023-08-31T13:41:49.929Z,26.18
2023-08-31T13:44:23.895Z,26.58
2023-08-31T13:46:59.669Z,27.66
2023-08-31T13:49:33.844Z,28.74
2023-08-31T13:52:10.553Z,29.58
2023-08-31T13:54:44.233Z,29.84
2023-08-31T13:57:18.929Z,28.56
2023-08-31T13:59:53.944Z,29.16
2023-08-31T14:02:28.110Z,29.72
2023-08-31T14:05:03.391Z,30.16
2023-08-31T14:07:37.313Z,30.56
2023-08-31T14:10:13.212Z,31.00
2023-08-31T14:12:50.018Z,31.20
2023-08-31T14:15:23.880Z,30.64
2023-08-31T14:17:58.068Z,30.50
2023-08-31T14:20:31.989Z,30.00
2023-08-31T14:23:06.020Z,28.92
2023-08-31T14:25:41.650Z,29.00
2023-08-31T14:28:15.511Z,28.08
2023-08-31T14:30:49.283Z,28.42
2023-08-31T14:33:24.232Z,29.16
2023-08-31T14:35:57.929Z,29.38
2023-08-31T14:38:31.666Z,29.22
2023-08-31T14:41:07.590Z,30.08
2023-08-31T14:43:41.353Z,30.70
2023-08-31T14:46:15.005Z,29.82
2023-08-31T14:48:48.667Z,29.38
2023-08-31T14:51:22.507Z,29.20
2023-08-31T14:53:56.371Z,29.58
2023-08-31T14:56:29.908Z,29.92
2023-08-31T14:59:03.588Z,30.00
2023-08-31T15:01:37.296Z,30.00
2023-08-31T15:04:11.058Z,30.10
2023-08-31T15:06:44.643Z,30.28
2023-08-31T15:09:18.196Z,30.60
2023-08-31T15:11:52.134Z,30.72
2023-08-31T15:14:25.619Z,30.82
2023-08-31T15:16:59.892Z,30.96
2023-08-31T15:19:33.469Z,30.20
2023-08-31T15:22:07.143Z,30.00
2023-08-31T15:24:43.903Z,30.10
2023-08-31T15:27:17.501Z,30.20
2023-08-31T15:29:51.225Z,30.28
2023-08-31T15:32:28.865Z,30.10
2023-08-31T15:35:02.587Z,30.04
2023-08-31T15:37:37.094Z,30.30
2023-08-31T15:40:13.315Z,30.60
2023-08-31T15:42:48.255Z,30.80
2023-08-31T15:45:22.569Z,30.70
2023-08-31T15:47:56.242Z,30.50
2023-08-31T15:50:31.849Z,30.40
2023-08-31T15:53:13.224Z,30.00
2023-08-31T15:55:53.153Z,29.68
2023-08-31T15:58:28.377Z,29.50
2023-08-31T16:01:04.262Z,28.28
2023-08-31T16:03:38.498Z,26.98
2023-08-31T16:06:15.624Z,25.60
2023-08-31T16:08:52.389Z,24.44
2023-08-31T16:11:26.140Z,23.48
2023-08-31T16:14:01.369Z,22.66
2023-08-31T16:16:35.377Z,22.08
2023-08-31T16:19:12.519Z,21.58
2023-08-31T16:21:46.068Z,21.02
2023-08-31T16:24:20.338Z,20.20
2023-08-31T16:26:56.747Z,18.96
2023-08-31T16:29:30.643Z,17.96
2023-08-31T16:32:06.964Z,17.12
2023-08-31T16:34:57.266Z,16.48
2023-08-31T16:37:45.469Z,16.00
2023-08-31T16:40:20.389Z,15.90
2023-08-31T16:42:54.070Z,15.80
2023-08-31T16:45:28.206Z,15.80
2023-08-31T16:48:03.131Z,15.80
2023-08-31T16:50:39.074Z,15.80
2023-08-31T16:53:13.084Z,15.90
2023-08-31T16:55:47.579Z,16.00
2023-08-31T16:58:21.793Z,16.10
2023-08-31T17:00:57.799Z,16.30
2023-08-31T17:03:33.101Z,16.38
2023-08-31T17:06:16.765Z,16.40
2023-08-31T17:08:53.526Z,16.40
2023-08-31T17:11:27.192Z,16.40
2023-08-31T17:14:01.824Z,16.30
2023-08-31T17:16:37.566Z,16.20
2023-08-31T17:19:11.460Z,16.00
2023-08-31T17:21:45.128Z,15.88
2023-08-31T17:24:20.055Z,15.70
2023-08-31T17:26:53.678Z,15.50
2023-08-31T17:29:28.307Z,15.40
2023-08-31T17:32:02.275Z,15.30
2023-08-31T17:34:35.914Z,15.20
2023-08-31T17:37:10.466Z,15.10
2023-08-31T17:39:44.151Z,15.10
2023-08-31T17:42:17.672Z,15.08
2023-08-31T17:44:51.703Z,15.00
2023-08-31T17:47:25.774Z,15.00
2023-08-31T17:50:00.323Z,14.90
2023-08-31T17:52:34.507Z,14.90
2023-08-31T17:55:11.423Z,14.90
2023-08-31T17:57:46.512Z,14.90
2023-08-31T18:00:22.535Z,14.90
2023-08-31T18:02:59.729Z,14.80
2023-08-31T18:05:33.573Z,14.70
2023-08-31T18:08:08.125Z,14.60
2023-08-31T18:10:41.748Z,14.50
2023-08-31T18:13:15.338Z,14.50
2023-08-31T18:15:53.887Z,14.50
2023-08-31T18:18:27.912Z,14.50
2023-08-31T18:21:05.674Z,14.60
2023-08-31T18:23:39.332Z,14.60
2023-08-31T18:26:13.245Z,14.70
2023-08-31T18:28:46.948Z,14.70
2023-08-31T18:31:20.579Z,14.80
2023-08-31T18:33:54.286Z,14.80
2023-08-31T18:36:27.775Z,14.80
2023-08-31T18:39:01.452Z,14.70
2023-08-31T18:41:35.174Z,14.66
2023-08-31T18:44:09.854Z,14.54
2023-08-31T18:46:46.952Z,14.40
2023-08-31T18:49:21.992Z,14.40
2023-08-31T18:51:55.901Z,14.30
2023-08-31T18:54:29.851Z,14.30
2023-08-31T18:57:06.637Z,14.32
2023-08-31T18:59:40.825Z,14.40
2023-08-31T19:02:25.238Z,14.40
2023-08-31T19:04:59.164Z,14.50
2023-08-31T19:07:33.318Z,14.60
2023-08-31T19:10:09.192Z,14.60
2023-08-31T19:12:48.473Z,14.62
2023-08-31T19:15:23.184Z,14.70
2023-08-31T19:18:01.319Z,14.70
2023-08-31T19:20:35.492Z,14.70
2023-08-31T19:23:09.962Z,14.78
2023-08-31T19:25:44.466Z,14.80
2023-08-31T19:28:21.829Z,14.80
2023-08-31T19:30:56.040Z,14.80
2023-08-31T19:33:30.269Z,14.80
2023-08-31T19:36:04.330Z,14.80
2023-08-31T19:38:39.420Z,14.80
2023-08-31T19:41:14.592Z,14.80
2023-08-31T19:43:48.143Z,14.80
2023-08-31T19:46:21.974Z,14.80
2023-08-31T19:48:56.263Z,14.80
2023-08-31T19:51:29.865Z,14.78
2023-08-31T19:54:05.601Z,14.72
2023-08-31T19:56:41.097Z,14.70
2023-08-31T19:59:18.492Z,14.70
2023-08-31T20:02:02.077Z,14.60
2023-08-31T20:04:35.900Z,14.50
2023-08-31T20:07:12.481Z,14.40
2023-08-31T20:09:46.176Z,14.30
2023-08-31T20:12:19.956Z,14.20
2023-08-31T20:14:54.114Z,14.20
2023-08-31T20:17:30.037Z,14.10
2023-08-31T20:20:04.315Z,14.00
2023-08-31T20:22:40.953Z,14.00
2023-08-31T20:25:15.413Z,13.96
2023-08-31T20:27:49.021Z,14.00
2023-08-31T20:30:28.262Z,14.00
2023-08-31T20:33:01.885Z,14.10
2023-08-31T20:35:36.509Z,14.16
2023-08-31T20:38:14.011Z,14.24
2023-08-31T20:40:48.438Z,14.40
2023-08-31T20:43:22.141Z,14.50
2023-08-31T20:58:02.436Z,15.00
2023-08-31T21:01:26.855Z,15.08
2023-08-31T21:12:19.901Z,15.30
2023-08-31T21:14:58.646Z,15.30
2023-08-31T21:31:52.095Z,15.22
2023-08-31T21:34:22.045Z,15.20
2023-08-31T21:36:51.705Z,15.18
2023-08-31T21:39:21.036Z,15.10
2023-08-31T21:41:51.739Z,15.06
2023-08-31T21:44:21.652Z,15.00
2023-08-31T21:46:51.162Z,14.90
2023-08-31T21:49:20.558Z,14.90
2023-08-31T21:51:49.965Z,14.80
2023-08-31T21:54:19.379Z,14.74
2023-08-31T21:56:48.739Z,14.70
2023-08-31T21:59:18.213Z,14.70
2023-08-31T22:01:47.542Z,14.60
2023-08-31T22:04:17.658Z,14.60
2023-08-31T22:06:49.508Z,14.50
2023-08-31T22:09:20.894Z,14.40
2023-08-31T22:11:50.235Z,14.36
2023-08-31T22:14:19.668Z,14.20
2023-08-31T22:16:49.073Z,14.10
2023-08-31T22:19:18.713Z,14.00
2023-08-31T22:21:48.498Z,13.90
2023-08-31T22:24:17.879Z,13.80
2023-08-31T22:26:47.335Z,13.70
2023-08-31T22:29:17.340Z,13.60
2023-08-31T22:31:46.786Z,13.50
2023-08-31T22:34:48.694Z,13.40
2023-08-31T22:37:18.172Z,13.30
2023-08-31T22:39:47.695Z,13.30
2023-08-31T22:42:17.376Z,13.30
2023-08-31T22:44:47.362Z,13.30
2023-08-31T22:47:17.332Z,13.30
2023-08-31T22:49:47.516Z,13.28
2023-08-31T22:52:17.404Z,13.10
2023-08-31T22:54:46.860Z,13.00
2023-08-31T22:57:16.418Z,12.90
2023-08-31T22:59:46.271Z,12.84
2023-08-31T23:02:17.256Z,12.76
2023-08-31T23:04:46.986Z,12.70
2023-08-31T23:07:18.051Z,12.60
2023-08-31T23:09:48.343Z,12.60
2023-08-31T23:12:17.962Z,12.58
2023-08-31T23:14:47.429Z,12.50
2023-08-31T23:17:16.859Z,12.44
2023-08-31T23:19:48.073Z,12.40
2023-08-31T23:22:17.837Z,12.30
2023-08-31T23:24:47.785Z,12.20
2023-08-31T23:27:17.174Z,12.10
2023-08-31T23:29:46.565Z,12.10
2023-08-31T23:32:16.216Z,12.10
2023-08-31T23:34:46.437Z,12.10
2023-08-31T23:37:15.777Z,12.10
2023-08-31T23:39:45.147Z,12.10
2023-08-31T23:42:14.805Z,12.10
2023-08-31T23:44:44.257Z,12.00
2023-08-31T23:47:13.617Z,12.00
2023-08-31T23:49:42.943Z,11.90
2023-08-31T23:52:12.324Z,11.84
2023-08-31T23:54:41.874Z,11.80
2023-08-31T23:57:11.781Z,11.80
2023-08-31T23:59:41.657Z,11.90
